sensor_id;sensor_type;location;lat;lon;timestamp;P1;durP1;ratioP1;P2;durP2;ratioP2
31594;SDS011;18200;48.726;8.892;2023-10-19T00:02:54;20.60;;;13.30;;
31594;SDS011;18200;48.726;8.892;2023-10-19T00:06:55;18.52;;;12.23;;
31594;SDS011;18200;48.726;8.892;2023-10-19T00:10:55;17.77;;;12.02;;
31594;SDS011;18200;48.726;8.892;2023-10-19T00:15:03;15.82;;;11.35;;
31594;SDS011;18200;48.726;8.892;2023-10-19T00:19:04;14.30;;;10.00;;
31594;SDS011;18200;48.726;8.892;2023-10-19T00:23:05;14.75;;;8.50;;
31594;SDS011;18200;48.726;8.892;2023-10-19T00:27:05;13.57;;;9.20;;
31594;SDS011;18200;48.726;8.892;2023-10-19T00:31:15;13.45;;;9.95;;
31594;SDS011;18200;48.726;8.892;2023-10-19T00:35:16;12.23;;;9.00;;
31594;SDS011;18200;48.726;8.892;2023-10-19T00:39:34;14.45;;;9.02;;
31594;SDS011;18200;48.726;8.892;2023-10-19T00:43:43;11.43;;;8.57;;
31594;SDS011;18200;48.726;8.892;2023-10-19T00:47:44;15.95;;;8.80;;
31594;SDS011;18200;48.726;8.892;2023-10-19T00:51:51;12.35;;;8.35;;
31594;SDS011;18200;48.726;8.892;2023-10-19T00:55:53;12.98;;;8.77;;
31594;SDS011;18200;48.726;8.892;2023-10-19T00:59:53;15.68;;;9.38;;
31594;SDS011;18200;48.726;8.892;2023-10-19T01:03:54;11.75;;;8.48;;
31594;SDS011;18200;48.726;8.892;2023-10-19T01:07:58;14.52;;;8.10;;
31594;SDS011;18200;48.726;8.892;2023-10-19T01:12:02;12.07;;;8.07;;
31594;SDS011;18200;48.726;8.892;2023-10-19T01:16:23;11.40;;;8.27;;
31594;SDS011;18200;48.726;8.892;2023-10-19T01:20:24;12.63;;;7.90;;
31594;SDS011;18200;48.726;8.892;2023-10-19T01:24:29;13.20;;;7.80;;
31594;SDS011;18200;48.726;8.892;2023-10-19T01:28:48;14.10;;;8.68;;
31594;SDS011;18200;48.726;8.892;2023-10-19T01:32:48;9.95;;;7.18;;
31594;SDS011;18200;48.726;8.892;2023-10-19T01:36:49;10.40;;;6.90;;
31594;SDS011;18200;48.726;8.892;2023-10-19T01:40:56;9.98;;;6.32;;
31594;SDS011;18200;48.726;8.892;2023-10-19T01:44:59;12.50;;;7.75;;
31594;SDS011;18200;48.726;8.892;2023-10-19T01:49:00;10.98;;;6.72;;
31594;SDS011;18200;48.726;8.892;2023-10-19T01:57:12;12.07;;;5.75;;
31594;SDS011;18200;48.726;8.892;2023-10-19T02:01:15;9.88;;;5.97;;
31594;SDS011;18200;48.726;8.892;2023-10-19T02:05:29;13.00;;;6.63;;
31594;SDS011;18200;48.726;8.892;2023-10-19T02:09:39;9.43;;;6.25;;
31594;SDS011;18200;48.726;8.892;2023-10-19T02:13:39;8.88;;;6.05;;
31594;SDS011;18200;48.726;8.892;2023-10-19T02:17:40;13.93;;;6.75;;
31594;SDS011;18200;48.726;8.892;2023-10-19T02:21:41;9.98;;;6.75;;
31594;SDS011;18200;48.726;8.892;2023-10-19T02:25:41;10.25;;;6.15;;
31594;SDS011;18200;48.726;8.892;2023-10-19T02:29:42;10.18;;;6.70;;
31594;SDS011;18200;48.726;8.892;2023-10-19T02:33:44;12.73;;;6.40;;
31594;SDS011;18200;48.726;8.892;2023-10-19T02:37:45;9.45;;;7.05;;
31594;SDS011;18200;48.726;8.892;2023-10-19T02:41:47;9.18;;;6.70;;
31594;SDS011;18200;48.726;8.892;2023-10-19T02:45:48;11.18;;;6.40;;
31594;SDS011;18200;48.726;8.892;2023-10-19T02:49:48;10.85;;;6.80;;
31594;SDS011;18200;48.726;8.892;2023-10-19T02:53:56;11.20;;;7.15;;
31594;SDS011;18200;48.726;8.892;2023-10-19T02:58:00;9.43;;;7.35;;
31594;SDS011;18200;48.726;8.892;2023-10-19T03:02:01;8.82;;;7.03;;
31594;SDS011;18200;48.726;8.892;2023-10-19T03:06:07;14.38;;;7.97;;
31594;SDS011;18200;48.726;8.892;2023-10-19T03:10:10;10.05;;;6.40;;
31594;SDS011;18200;48.726;8.892;2023-10-19T03:14:23;11.13;;;6.93;;
31594;SDS011;18200;48.726;8.892;2023-10-19T03:18:25;10.95;;;6.00;;
31594;SDS011;18200;48.726;8.892;2023-10-19T03:22:26;10.25;;;6.00;;
31594;SDS011;18200;48.726;8.892;2023-10-19T03:26:28;12.20;;;5.78;;
31594;SDS011;18200;48.726;8.892;2023-10-19T03:30:31;9.15;;;4.97;;
31594;SDS011;18200;48.726;8.892;2023-10-19T03:34:31;9.52;;;4.53;;
31594;SDS011;18200;48.726;8.892;2023-10-19T03:38:33;12.10;;;4.60;;
31594;SDS011;18200;48.726;8.892;2023-10-19T03:42:35;12.25;;;5.72;;
31594;SDS011;18200;48.726;8.892;2023-10-19T03:46:40;8.27;;;5.57;;
31594;SDS011;18200;48.726;8.892;2023-10-19T03:50:53;6.63;;;5.03;;
31594;SDS011;18200;48.726;8.892;2023-10-19T03:54:56;12.23;;;6.83;;
31594;SDS011;18200;48.726;8.892;2023-10-19T03:58:57;8.15;;;5.53;;
31594;SDS011;18200;48.726;8.892;2023-10-19T04:02:59;9.65;;;6.32;;
31594;SDS011;18200;48.726;8.892;2023-10-19T04:06:59;9.73;;;5.90;;
31594;SDS011;18200;48.726;8.892;2023-10-19T04:11:00;7.63;;;5.90;;
31594;SDS011;18200;48.726;8.892;2023-10-19T04:15:11;8.68;;;5.95;;
31594;SDS011;18200;48.726;8.892;2023-10-19T04:19:13;9.27;;;6.22;;
31594;SDS011;18200;48.726;8.892;2023-10-19T04:23:14;10.00;;;6.72;;
31594;SDS011;18200;48.726;8.892;2023-10-19T04:27:15;13.38;;;7.47;;
31594;SDS011;18200;48.726;8.892;2023-10-19T04:31:16;14.18;;;7.60;;
31594;SDS011;18200;48.726;8.892;2023-10-19T04:35:18;10.55;;;7.25;;
31594;SDS011;18200;48.726;8.892;2023-10-19T04:39:22;9.95;;;7.18;;
31594;SDS011;18200;48.726;8.892;2023-10-19T04:43:22;13.45;;;7.65;;
31594;SDS011;18200;48.726;8.892;2023-10-19T04:47:22;11.65;;;7.32;;
31594;SDS011;18200;48.726;8.892;2023-10-19T04:51:23;13.07;;;6.10;;
31594;SDS011;18200;48.726;8.892;2023-10-19T04:55:24;10.65;;;6.50;;
31594;SDS011;18200;48.726;8.892;2023-10-19T04:59:24;12.90;;;6.45;;
31594;SDS011;18200;48.726;8.892;2023-10-19T05:03:25;9.07;;;6.70;;
31594;SDS011;18200;48.726;8.892;2023-10-19T05:07:26;13.57;;;7.07;;
31594;SDS011;18200;48.726;8.892;2023-10-19T05:11:26;11.00;;;6.45;;
31594;SDS011;18200;48.726;8.892;2023-10-19T05:15:27;9.43;;;6.47;;
31594;SDS011;18200;48.726;8.892;2023-10-19T05:19:27;10.07;;;6.60;;
31594;SDS011;18200;48.726;8.892;2023-10-19T05:23:27;15.23;;;9.20;;
31594;SDS011;18200;48.726;8.892;2023-10-19T05:27:28;12.57;;;6.85;;
31594;SDS011;18200;48.726;8.892;2023-10-19T05:31:28;9.90;;;5.93;;
31594;SDS011;18200;48.726;8.892;2023-10-19T05:35:31;10.05;;;6.88;;
31594;SDS011;18200;48.726;8.892;2023-10-19T05:39:35;11.00;;;6.53;;
31594;SDS011;18200;48.726;8.892;2023-10-19T05:43:37;11.52;;;6.00;;
31594;SDS011;18200;48.726;8.892;2023-10-19T05:47:38;9.63;;;6.45;;
31594;SDS011;18200;48.726;8.892;2023-10-19T05:51:39;9.75;;;5.53;;
31594;SDS011;18200;48.726;8.892;2023-10-19T05:55:41;9.75;;;6.80;;
31594;SDS011;18200;48.726;8.892;2023-10-19T05:59:41;10.30;;;6.35;;
31594;SDS011;18200;48.726;8.892;2023-10-19T06:03:41;10.90;;;6.60;;
31594;SDS011;18200;48.726;8.892;2023-10-19T06:07:42;12.23;;;7.18;;
31594;SDS011;18200;48.726;8.892;2023-10-19T06:11:47;13.30;;;6.78;;
31594;SDS011;18200;48.726;8.892;2023-10-19T06:15:50;10.40;;;7.55;;
31594;SDS011;18200;48.726;8.892;2023-10-19T06:19:51;10.93;;;7.43;;
31594;SDS011;18200;48.726;8.892;2023-10-19T06:23:51;10.48;;;7.25;;
31594;SDS011;18200;48.726;8.892;2023-10-19T06:27:53;10.52;;;6.97;;
31594;SDS011;18200;48.726;8.892;2023-10-19T06:31:57;10.68;;;6.45;;
31594;SDS011;18200;48.726;8.892;2023-10-19T06:35:57;10.10;;;8.00;;
31594;SDS011;18200;48.726;8.892;2023-10-19T06:39:59;16.13;;;9.77;;
31594;SDS011;18200;48.726;8.892;2023-10-19T06:43:59;15.10;;;10.02;;
31594;SDS011;18200;48.726;8.892;2023-10-19T06:48:01;14.18;;;9.40;;
31594;SDS011;18200;48.726;8.892;2023-10-19T06:52:01;16.48;;;9.82;;
31594;SDS011;18200;48.726;8.892;2023-10-19T06:56:04;10.30;;;8.13;;
31594;SDS011;18200;48.726;8.892;2023-10-19T07:00:05;12.88;;;7.88;;
31594;SDS011;18200;48.726;8.892;2023-10-19T07:04:14;15.05;;;8.10;;
31594;SDS011;18200;48.726;8.892;2023-10-19T07:08:14;13.40;;;8.15;;
31594;SDS011;18200;48.726;8.892;2023-10-19T07:12:16;15.18;;;8.88;;
31594;SDS011;18200;48.726;8.892;2023-10-19T07:16:18;25.27;;;11.23;;
31594;SDS011;18200;48.726;8.892;2023-10-19T07:20:20;18.98;;;10.63;;
31594;SDS011;18200;48.726;8.892;2023-10-19T07:24:32;19.23;;;11.10;;
31594;SDS011;18200;48.726;8.892;2023-10-19T07:28:36;16.95;;;12.15;;
31594;SDS011;18200;48.726;8.892;2023-10-19T07:32:37;19.77;;;12.80;;
31594;SDS011;18200;48.726;8.892;2023-10-19T07:36:38;21.02;;;14.75;;
31594;SDS011;18200;48.726;8.892;2023-10-19T07:40:39;17.10;;;12.90;;
31594;SDS011;18200;48.726;8.892;2023-10-19T07:44:40;24.02;;;12.35;;
31594;SDS011;18200;48.726;8.892;2023-10-19T07:48:41;14.52;;;9.98;;
31594;SDS011;18200;48.726;8.892;2023-10-19T07:52:48;13.30;;;9.95;;
31594;SDS011;18200;48.726;8.892;2023-10-19T07:56:50;14.20;;;8.82;;
31594;SDS011;18200;48.726;8.892;2023-10-19T08:00:51;11.90;;;8.45;;
31594;SDS011;18200;48.726;8.892;2023-10-19T08:04:52;13.73;;;8.20;;
31594;SDS011;18200;48.726;8.892;2023-10-19T08:08:52;9.80;;;7.57;;
31594;SDS011;18200;48.726;8.892;2023-10-19T08:12:53;10.23;;;6.70;;
31594;SDS011;18200;48.726;8.892;2023-10-19T08:16:55;11.65;;;6.55;;
31594;SDS011;18200;48.726;8.892;2023-10-19T08:20:56;8.95;;;5.80;;
31594;SDS011;18200;48.726;8.892;2023-10-19T08:24:57;9.38;;;6.05;;
31594;SDS011;18200;48.726;8.892;2023-10-19T08:28:58;6.82;;;4.82;;
31594;SDS011;18200;48.726;8.892;2023-10-19T08:32:59;13.45;;;4.80;;
31594;SDS011;18200;48.726;8.892;2023-10-19T08:36:59;8.65;;;5.68;;
31594;SDS011;18200;48.726;8.892;2023-10-19T08:40:59;10.20;;;5.50;;
31594;SDS011;18200;48.726;8.892;2023-10-19T08:45:00;11.65;;;5.78;;
31594;SDS011;18200;48.726;8.892;2023-10-19T08:49:00;7.32;;;5.13;;
31594;SDS011;18200;48.726;8.892;2023-10-19T08:53:01;6.18;;;4.22;;
31594;SDS011;18200;48.726;8.892;2023-10-19T08:57:03;8.95;;;4.47;;
31594;SDS011;18200;48.726;8.892;2023-10-19T09:01:04;7.35;;;4.28;;
31594;SDS011;18200;48.726;8.892;2023-10-19T09:05:07;17.03;;;5.60;;
31594;SDS011;18200;48.726;8.892;2023-10-19T09:09:12;18.70;;;9.70;;
31594;SDS011;18200;48.726;8.892;2023-10-19T09:13:25;12.73;;;6.13;;
31594;SDS011;18200;48.726;8.892;2023-10-19T09:17:28;9.43;;;3.60;;
31594;SDS011;18200;48.726;8.892;2023-10-19T09:25:33;8.07;;;4.43;;
31594;SDS011;18200;48.726;8.892;2023-10-19T09:29:35;7.28;;;4.07;;
31594;SDS011;18200;48.726;8.892;2023-10-19T09:33:36;7.97;;;4.50;;
31594;SDS011;18200;48.726;8.892;2023-10-19T09:37:40;7.43;;;4.03;;
31594;SDS011;18200;48.726;8.892;2023-10-19T09:41:41;7.25;;;4.05;;
31594;SDS011;18200;48.726;8.892;2023-10-19T09:45:42;12.27;;;4.68;;
31594;SDS011;18200;48.726;8.892;2023-10-19T09:49:51;8.02;;;4.40;;
31594;SDS011;18200;48.726;8.892;2023-10-19T09:58:31;7.35;;;4.40;;
31594;SDS011;18200;48.726;8.892;2023-10-19T10:02:43;6.88;;;3.75;;
31594;SDS011;18200;48.726;8.892;2023-10-19T10:10:50;5.68;;;3.47;;
31594;SDS011;18200;48.726;8.892;2023-10-19T10:15:01;7.05;;;3.67;;
31594;SDS011;18200;48.726;8.892;2023-10-19T10:19:03;5.50;;;3.80;;
31594;SDS011;18200;48.726;8.892;2023-10-19T10:23:18;7.57;;;4.10;;
31594;SDS011;18200;48.726;8.892;2023-10-19T10:27:32;7.20;;;3.90;;
31594;SDS011;18200;48.726;8.892;2023-10-19T10:31:34;5.03;;;3.58;;
31594;SDS011;18200;48.726;8.892;2023-10-19T10:39:38;5.90;;;3.67;;
31594;SDS011;18200;48.726;8.892;2023-10-19T10:43:48;6.07;;;3.20;;
31594;SDS011;18200;48.726;8.892;2023-10-19T10:47:53;5.72;;;3.30;;
31594;SDS011;18200;48.726;8.892;2023-10-19T10:51:55;4.53;;;2.90;;
31594;SDS011;18200;48.726;8.892;2023-10-19T10:55:59;5.15;;;2.80;;
31594;SDS011;18200;48.726;8.892;2023-10-19T11:00:04;4.72;;;2.20;;
31594;SDS011;18200;48.726;8.892;2023-10-19T11:04:18;4.78;;;2.63;;
31594;SDS011;18200;48.726;8.892;2023-10-19T11:08:19;5.00;;;2.10;;
31594;SDS011;18200;48.726;8.892;2023-10-19T11:12:24;3.03;;;2.20;;
31594;SDS011;18200;48.726;8.892;2023-10-19T11:16:24;2.42;;;1.77;;
31594;SDS011;18200;48.726;8.892;2023-10-19T11:20:25;4.05;;;2.30;;
31594;SDS011;18200;48.726;8.892;2023-10-19T11:24:29;4.68;;;2.75;;
31594;SDS011;18200;48.726;8.892;2023-10-19T11:32:37;7.53;;;2.90;;
31594;SDS011;18200;48.726;8.892;2023-10-19T11:36:40;5.72;;;2.33;;
31594;SDS011;18200;48.726;8.892;2023-10-19T11:40:41;4.28;;;2.65;;
31594;SDS011;18200;48.726;8.892;2023-10-19T11:44:41;4.47;;;2.80;;
31594;SDS011;18200;48.726;8.892;2023-10-19T11:48:42;5.07;;;3.00;;
31594;SDS011;18200;48.726;8.892;2023-10-19T11:52:42;4.00;;;2.30;;
31594;SDS011;18200;48.726;8.892;2023-10-19T11:56:43;5.45;;;3.65;;
31594;SDS011;18200;48.726;8.892;2023-10-19T12:00:44;8.05;;;3.97;;
31594;SDS011;18200;48.726;8.892;2023-10-19T12:04:46;6.32;;;3.65;;
31594;SDS011;18200;48.726;8.892;2023-10-19T12:08:47;5.30;;;3.30;;
31594;SDS011;18200;48.726;8.892;2023-10-19T12:12:47;8.43;;;6.15;;
31594;SDS011;18200;48.726;8.892;2023-10-19T12:16:48;11.52;;;6.32;;
31594;SDS011;18200;48.726;8.892;2023-10-19T12:20:48;11.40;;;5.63;;
31594;SDS011;18200;48.726;8.892;2023-10-19T12:24:49;8.90;;;4.85;;
31594;SDS011;18200;48.726;8.892;2023-10-19T12:28:51;8.23;;;4.93;;
31594;SDS011;18200;48.726;8.892;2023-10-19T12:32:52;8.52;;;5.22;;
31594;SDS011;18200;48.726;8.892;2023-10-19T12:36:52;12.20;;;7.10;;
31594;SDS011;18200;48.726;8.892;2023-10-19T12:40:55;10.13;;;4.97;;
31594;SDS011;18200;48.726;8.892;2023-10-19T12:44:55;9.25;;;5.95;;
31594;SDS011;18200;48.726;8.892;2023-10-19T12:48:56;8.80;;;4.88;;
31594;SDS011;18200;48.726;8.892;2023-10-19T12:52:57;8.60;;;4.75;;
31594;SDS011;18200;48.726;8.892;2023-10-19T12:56:58;7.93;;;4.63;;
31594;SDS011;18200;48.726;8.892;2023-10-19T13:00:58;7.25;;;5.32;;
31594;SDS011;18200;48.726;8.892;2023-10-19T13:04:58;8.30;;;4.10;;
31594;SDS011;18200;48.726;8.892;2023-10-19T13:08:59;7.22;;;4.07;;
31594;SDS011;18200;48.726;8.892;2023-10-19T13:13:00;5.78;;;3.25;;
31594;SDS011;18200;48.726;8.892;2023-10-19T13:17:03;4.97;;;3.63;;
31594;SDS011;18200;48.726;8.892;2023-10-19T13:21:03;5.07;;;2.72;;
31594;SDS011;18200;48.726;8.892;2023-10-19T13:25:09;8.98;;;3.30;;
31594;SDS011;18200;48.726;8.892;2023-10-19T13:29:13;6.82;;;3.70;;
31594;SDS011;18200;48.726;8.892;2023-10-19T13:33:15;4.20;;;3.63;;
31594;SDS011;18200;48.726;8.892;2023-10-19T13:37:16;6.43;;;4.40;;
31594;SDS011;18200;48.726;8.892;2023-10-19T13:41:16;6.22;;;4.47;;
31594;SDS011;18200;48.726;8.892;2023-10-19T13:45:17;8.18;;;5.10;;
31594;SDS011;18200;48.726;8.892;2023-10-19T13:49:18;6.32;;;4.07;;
31594;SDS011;18200;48.726;8.892;2023-10-19T13:53:18;4.90;;;3.75;;
31594;SDS011;18200;48.726;8.892;2023-10-19T13:57:19;9.38;;;5.30;;
31594;SDS011;18200;48.726;8.892;2023-10-19T14:01:19;7.93;;;5.30;;
31594;SDS011;18200;48.726;8.892;2023-10-19T14:05:24;7.70;;;5.20;;
31594;SDS011;18200;48.726;8.892;2023-10-19T14:09:24;10.13;;;6.07;;
31594;SDS011;18200;48.726;8.892;2023-10-19T14:13:26;7.88;;;5.82;;
31594;SDS011;18200;48.726;8.892;2023-10-19T14:17:26;10.88;;;5.07;;
31594;SDS011;18200;48.726;8.892;2023-10-19T14:21:27;10.07;;;6.30;;
31594;SDS011;18200;48.726;8.892;2023-10-19T14:25:28;12.40;;;8.00;;
31594;SDS011;18200;48.726;8.892;2023-10-19T14:29:28;10.50;;;6.75;;
31594;SDS011;18200;48.726;8.892;2023-10-19T14:33:30;7.53;;;6.13;;
31594;SDS011;18200;48.726;8.892;2023-10-19T14:37:30;7.25;;;5.30;;
31594;SDS011;18200;48.726;8.892;2023-10-19T14:41:31;8.40;;;6.03;;
31594;SDS011;18200;48.726;8.892;2023-10-19T14:45:32;8.40;;;6.35;;
31594;SDS011;18200;48.726;8.892;2023-10-19T14:49:33;12.80;;;6.78;;
31594;SDS011;18200;48.726;8.892;2023-10-19T14:53:33;10.85;;;5.93;;
31594;SDS011;18200;48.726;8.892;2023-10-19T14:57:34;19.10;;;12.38;;
31594;SDS011;18200;48.726;8.892;2023-10-19T15:01:34;16.55;;;11.15;;
31594;SDS011;18200;48.726;8.892;2023-10-19T15:05:36;12.18;;;8.90;;
31594;SDS011;18200;48.726;8.892;2023-10-19T15:09:37;11.93;;;8.20;;
31594;SDS011;18200;48.726;8.892;2023-10-19T15:13:38;14.13;;;10.70;;
31594;SDS011;18200;48.726;8.892;2023-10-19T15:17:38;12.88;;;7.60;;
31594;SDS011;18200;48.726;8.892;2023-10-19T15:21:39;10.98;;;7.15;;
31594;SDS011;18200;48.726;8.892;2023-10-19T15:25:42;11.02;;;7.60;;
31594;SDS011;18200;48.726;8.892;2023-10-19T15:29:42;12.60;;;7.22;;
31594;SDS011;18200;48.726;8.892;2023-10-19T15:33:42;9.38;;;6.53;;
31594;SDS011;18200;48.726;8.892;2023-10-19T15:37:44;10.43;;;6.72;;
31594;SDS011;18200;48.726;8.892;2023-10-19T15:41:48;14.75;;;10.45;;
31594;SDS011;18200;48.726;8.892;2023-10-19T15:45:48;31.00;;;21.80;;
31594;SDS011;18200;48.726;8.892;2023-10-19T15:49:50;45.38;;;32.03;;
31594;SDS011;18200;48.726;8.892;2023-10-19T15:53:53;28.67;;;21.42;;
31594;SDS011;18200;48.726;8.892;2023-10-19T15:57:54;27.65;;;17.55;;
31594;SDS011;18200;48.726;8.892;2023-10-19T16:01:55;18.17;;;11.55;;
31594;SDS011;18200;48.726;8.892;2023-10-19T16:05:56;29.92;;;22.77;;
31594;SDS011;18200;48.726;8.892;2023-10-19T16:09:57;17.40;;;13.55;;
31594;SDS011;18200;48.726;8.892;2023-10-19T16:13:57;13.13;;;7.70;;
31594;SDS011;18200;48.726;8.892;2023-10-19T16:17:58;11.55;;;9.25;;
31594;SDS011;18200;48.726;8.892;2023-10-19T16:21:58;8.60;;;5.80;;
31594;SDS011;18200;48.726;8.892;2023-10-19T16:25:59;14.52;;;7.97;;
31594;SDS011;18200;48.726;8.892;2023-10-19T16:30:00;9.10;;;6.13;;
31594;SDS011;18200;48.726;8.892;2023-10-19T16:34:01;8.32;;;5.30;;
31594;SDS011;18200;48.726;8.892;2023-10-19T16:38:02;8.45;;;5.50;;
31594;SDS011;18200;48.726;8.892;2023-10-19T16:42:02;10.30;;;8.38;;
31594;SDS011;18200;48.726;8.892;2023-10-19T16:46:03;13.45;;;9.25;;
31594;SDS011;18200;48.726;8.892;2023-10-19T16:50:04;13.27;;;9.55;;
31594;SDS011;18200;48.726;8.892;2023-10-19T16:54:12;12.65;;;7.85;;
31594;SDS011;18200;48.726;8.892;2023-10-19T16:58:13;12.18;;;8.18;;
31594;SDS011;18200;48.726;8.892;2023-10-19T17:02:15;13.55;;;8.90;;
31594;SDS011;18200;48.726;8.892;2023-10-19T17:06:15;9.38;;;6.80;;
31594;SDS011;18200;48.726;8.892;2023-10-19T17:10:16;46.20;;;30.02;;
31594;SDS011;18200;48.726;8.892;2023-10-19T17:14:16;45.28;;;29.45;;
31594;SDS011;18200;48.726;8.892;2023-10-19T17:18:17;19.17;;;11.82;;
31594;SDS011;18200;48.726;8.892;2023-10-19T17:22:17;11.32;;;7.63;;
31594;SDS011;18200;48.726;8.892;2023-10-19T17:26:18;19.15;;;11.63;;
31594;SDS011;18200;48.726;8.892;2023-10-19T17:30:19;10.82;;;7.38;;
31594;SDS011;18200;48.726;8.892;2023-10-19T17:34:20;10.23;;;7.38;;
31594;SDS011;18200;48.726;8.892;2023-10-19T17:38:21;10.80;;;6.93;;
31594;SDS011;18200;48.726;8.892;2023-10-19T17:42:21;9.73;;;6.15;;
31594;SDS011;18200;48.726;8.892;2023-10-19T17:46:22;13.50;;;9.82;;
31594;SDS011;18200;48.726;8.892;2023-10-19T17:50:23;22.35;;;14.15;;
31594;SDS011;18200;48.726;8.892;2023-10-19T17:54:23;27.58;;;17.27;;
31594;SDS011;18200;48.726;8.892;2023-10-19T17:58:23;17.70;;;12.93;;
31594;SDS011;18200;48.726;8.892;2023-10-19T18:02:24;11.20;;;7.38;;
31594;SDS011;18200;48.726;8.892;2023-10-19T18:06:25;11.45;;;7.53;;
31594;SDS011;18200;48.726;8.892;2023-10-19T18:10:25;17.15;;;12.70;;
31594;SDS011;18200;48.726;8.892;2023-10-19T18:14:28;10.75;;;8.93;;
31594;SDS011;18200;48.726;8.892;2023-10-19T18:18:29;12.30;;;8.25;;
31594;SDS011;18200;48.726;8.892;2023-10-19T18:22:29;8.85;;;5.93;;
31594;SDS011;18200;48.726;8.892;2023-10-19T18:26:30;9.13;;;6.38;;
31594;SDS011;18200;48.726;8.892;2023-10-19T18:30:30;8.32;;;6.10;;
31594;SDS011;18200;48.726;8.892;2023-10-19T18:34:30;10.13;;;6.78;;
31594;SDS011;18200;48.726;8.892;2023-10-19T18:38:34;11.23;;;7.10;;
31594;SDS011;18200;48.726;8.892;2023-10-19T18:42:35;12.53;;;8.03;;
31594;SDS011;18200;48.726;8.892;2023-10-19T18:46:35;14.27;;;9.00;;
31594;SDS011;18200;48.726;8.892;2023-10-19T18:50:35;24.48;;;13.52;;
31594;SDS011;18200;48.726;8.892;2023-10-19T18:54:36;17.40;;;9.30;;
31594;SDS011;18200;48.726;8.892;2023-10-19T18:58:37;21.30;;;10.68;;
31594;SDS011;18200;48.726;8.892;2023-10-19T19:02:37;21.95;;;11.75;;
31594;SDS011;18200;48.726;8.892;2023-10-19T19:06:39;16.08;;;9.43;;
31594;SDS011;18200;48.726;8.892;2023-10-19T19:10:39;12.10;;;8.45;;
31594;SDS011;18200;48.726;8.892;2023-10-19T19:14:39;17.38;;;8.50;;
31594;SDS011;18200;48.726;8.892;2023-10-19T19:18:40;10.60;;;6.90;;
31594;SDS011;18200;48.726;8.892;2023-10-19T19:22:42;9.65;;;7.10;;
31594;SDS011;18200;48.726;8.892;2023-10-19T19:26:42;15.02;;;8.55;;
31594;SDS011;18200;48.726;8.892;2023-10-19T19:30:42;15.95;;;6.88;;
31594;SDS011;18200;48.726;8.892;2023-10-19T19:34:43;10.57;;;7.68;;
31594;SDS011;18200;48.726;8.892;2023-10-19T19:38:46;18.98;;;11.65;;
31594;SDS011;18200;48.726;8.892;2023-10-19T19:42:46;16.35;;;11.35;;
31594;SDS011;18200;48.726;8.892;2023-10-19T19:46:46;15.43;;;10.35;;
31594;SDS011;18200;48.726;8.892;2023-10-19T19:50:47;17.42;;;9.98;;
31594;SDS011;18200;48.726;8.892;2023-10-19T19:54:47;11.45;;;8.13;;
31594;SDS011;18200;48.726;8.892;2023-10-19T19:58:49;11.13;;;9.20;;
31594;SDS011;18200;48.726;8.892;2023-10-19T20:02:49;13.70;;;10.18;;
31594;SDS011;18200;48.726;8.892;2023-10-19T20:06:50;12.55;;;9.23;;
31594;SDS011;18200;48.726;8.892;2023-10-19T20:10:50;14.05;;;9.38;;
31594;SDS011;18200;48.726;8.892;2023-10-19T20:14:51;13.05;;;9.82;;
31594;SDS011;18200;48.726;8.892;2023-10-19T20:18:51;14.00;;;10.02;;
31594;SDS011;18200;48.726;8.892;2023-10-19T20:22:51;12.48;;;10.40;;
31594;SDS011;18200;48.726;8.892;2023-10-19T20:26:54;13.23;;;9.98;;
31594;SDS011;18200;48.726;8.892;2023-10-19T20:30:54;14.52;;;10.02;;
31594;SDS011;18200;48.726;8.892;2023-10-19T20:34:57;12.48;;;9.90;;
31594;SDS011;18200;48.726;8.892;2023-10-19T20:38:57;13.45;;;9.88;;
31594;SDS011;18200;48.726;8.892;2023-10-19T20:43:01;14.40;;;9.18;;
31594;SDS011;18200;48.726;8.892;2023-10-19T20:47:04;20.90;;;11.70;;
31594;SDS011;18200;48.726;8.892;2023-10-19T20:51:13;15.68;;;11.40;;
31594;SDS011;18200;48.726;8.892;2023-10-19T20:55:14;15.55;;;11.18;;
31594;SDS011;18200;48.726;8.892;2023-10-19T20:59:14;18.42;;;12.05;;
31594;SDS011;18200;48.726;8.892;2023-10-19T21:03:14;18.13;;;11.48;;
31594;SDS011;18200;48.726;8.892;2023-10-19T21:07:15;26.08;;;16.02;;
31594;SDS011;18200;48.726;8.892;2023-10-19T21:11:19;23.77;;;16.37;;
31594;SDS011;18200;48.726;8.892;2023-10-19T21:15:19;18.33;;;13.57;;
31594;SDS011;18200;48.726;8.892;2023-10-19T21:19:20;17.48;;;11.85;;
31594;SDS011;18200;48.726;8.892;2023-10-19T21:23:20;14.90;;;11.40;;
31594;SDS011;18200;48.726;8.892;2023-10-19T21:27:21;14.35;;;10.30;;
31594;SDS011;18200;48.726;8.892;2023-10-19T21:31:21;15.90;;;11.57;;
31594;SDS011;18200;48.726;8.892;2023-10-19T21:35:21;15.70;;;11.50;;
31594;SDS011;18200;48.726;8.892;2023-10-19T21:39:22;14.77;;;11.55;;
31594;SDS011;18200;48.726;8.892;2023-10-19T21:43:22;19.65;;;13.32;;
31594;SDS011;18200;48.726;8.892;2023-10-19T21:47:23;17.10;;;12.70;;
31594;SDS011;18200;48.726;8.892;2023-10-19T21:51:24;23.80;;;14.95;;
31594;SDS011;18200;48.726;8.892;2023-10-19T21:55:24;21.45;;;15.88;;
31594;SDS011;18200;48.726;8.892;2023-10-19T21:59:24;24.00;;;17.40;;
31594;SDS011;18200;48.726;8.892;2023-10-19T22:03:27;23.58;;;16.35;;
31594;SDS011;18200;48.726;8.892;2023-10-19T22:07:28;19.90;;;15.83;;
31594;SDS011;18200;48.726;8.892;2023-10-19T22:11:28;20.08;;;15.63;;
31594;SDS011;18200;48.726;8.892;2023-10-19T22:15:29;19.77;;;13.98;;
31594;SDS011;18200;48.726;8.892;2023-10-19T22:19:29;21.15;;;15.65;;
31594;SDS011;18200;48.726;8.892;2023-10-19T22:23:30;26.73;;;17.33;;
31594;SDS011;18200;48.726;8.892;2023-10-19T22:27:30;21.15;;;13.38;;
31594;SDS011;18200;48.726;8.892;2023-10-19T22:31:33;22.83;;;15.00;;
31594;SDS011;18200;48.726;8.892;2023-10-19T22:35:37;18.08;;;13.73;;
31594;SDS011;18200;48.726;8.892;2023-10-19T22:39:37;18.20;;;13.90;;
31594;SDS011;18200;48.726;8.892;2023-10-19T22:43:39;18.70;;;13.77;;
31594;SDS011;18200;48.726;8.892;2023-10-19T22:47:39;21.75;;;17.08;;
31594;SDS011;18200;48.726;8.892;2023-10-19T22:51:40;20.25;;;14.45;;
31594;SDS011;18200;48.726;8.892;2023-10-19T22:55:41;16.25;;;13.15;;
31594;SDS011;18200;48.726;8.892;2023-10-19T22:59:41;17.08;;;12.95;;
31594;SDS011;18200;48.726;8.892;2023-10-19T23:03:41;17.92;;;13.05;;
31594;SDS011;18200;48.726;8.892;2023-10-19T23:07:44;18.00;;;13.68;;
31594;SDS011;18200;48.726;8.892;2023-10-19T23:11:46;21.73;;;13.93;;
31594;SDS011;18200;48.726;8.892;2023-10-19T23:15:59;18.52;;;13.98;;
31594;SDS011;18200;48.726;8.892;2023-10-19T23:20:00;16.55;;;12.95;;
31594;SDS011;18200;48.726;8.892;2023-10-19T23:24:09;18.38;;;12.38;;
31594;SDS011;18200;48.726;8.892;2023-10-19T23:28:16;17.58;;;12.52;;
31594;SDS011;18200;48.726;8.892;2023-10-19T23:32:16;19.00;;;13.98;;
31594;SDS011;18200;48.726;8.892;2023-10-19T23:36:18;18.77;;;14.07;;
31594;SDS011;18200;48.726;8.892;2023-10-19T23:40:19;16.73;;;13.02;;
31594;SDS011;18200;48.726;8.892;2023-10-19T23:44:19;17.77;;;13.57;;
31594;SDS011;18200;48.726;8.892;2023-10-19T23:48:22;17.42;;;12.35;;
31594;SDS011;18200;48.726;8.892;2023-10-19T23:52:22;16.13;;;12.07;;
31594;SDS011;18200;48.726;8.892;2023-10-19T23:56:22;14.15;;;11.27;;
